METAR Data
IDs: Format: Raw Decoded Include TAF

Data at: 2102 UTC 17 Nov 2019

PKMR 172051Z 17008KT 15SM FEW014TCU SCT050 BKN120 OVC300 27/24 A2987 RMK TCU E SLP117 60002 8/878 T02740244 52017